sensor_id;sensor_type;location;lat;lon;timestamp;pressure;altitude;pressure_sealevel;temperature;humidity
19795;BME280;10057;59.402;17.866;2022-10-16T00:02:08;100309.88;;;12.98;89.71
19795;BME280;10057;59.402;17.866;2022-10-16T00:04:35;100308.25;;;12.96;89.32
19795;BME280;10057;59.402;17.866;2022-10-16T00:07:02;100309.00;;;12.98;89.75
19795;BME280;10057;59.402;17.866;2022-10-16T00:09:28;100304.63;;;12.97;89.59
19795;BME280;10057;59.402;17.866;2022-10-16T00:11:55;100301.97;;;12.97;89.71
19795;BME280;10057;59.402;17.866;2022-10-16T00:14:22;100298.53;;;12.95;89.55
19795;BME280;10057;59.402;17.866;2022-10-16T00:16:50;100293.28;;;12.93;89.37
19795;BME280;10057;59.402;17.866;2022-10-16T00:19:19;100302.31;;;12.91;89.67
19795;BME280;10057;59.402;17.866;2022-10-16T00:21:46;100297.94;;;12.90;89.31
19795;BME280;10057;59.402;17.866;2022-10-16T00:24:13;100289.94;;;12.90;89.64
19795;BME280;10057;59.402;17.866;2022-10-16T00:26:40;100284.78;;;12.87;89.52
19795;BME280;10057;59.402;17.866;2022-10-16T00:29:09;100280.41;;;12.86;89.60
19795;BME280;10057;59.402;17.866;2022-10-16T00:31:39;100280.63;;;12.81;89.44
19795;BME280;10057;59.402;17.866;2022-10-16T00:34:06;100279.94;;;12.77;89.47
19795;BME280;10057;59.402;17.866;2022-10-16T00:36:35;100281.84;;;12.75;89.35
19795;BME280;10057;59.402;17.866;2022-10-16T00:39:05;100281.16;;;12.72;89.42
19795;BME280;10057;59.402;17.866;2022-10-16T00:41:35;100278.56;;;12.70;89.13
19795;BME280;10057;59.402;17.866;2022-10-16T00:44:04;100271.75;;;12.65;89.46
19795;BME280;10057;59.402;17.866;2022-10-16T00:46:52;100273.69;;;12.61;89.43
19795;BME280;10057;59.402;17.866;2022-10-16T00:49:19;100281.00;;;12.57;89.02
19795;BME280;10057;59.402;17.866;2022-10-16T00:51:49;100283.91;;;12.53;89.37
19795;BME280;10057;59.402;17.866;2022-10-16T00:54:26;100274.28;;;12.50;89.17
19795;BME280;10057;59.402;17.866;2022-10-16T00:57:01;100284.22;;;12.47;89.32
19795;BME280;10057;59.402;17.866;2022-10-16T00:59:37;100284.38;;;12.44;89.17
19795;BME280;10057;59.402;17.866;2022-10-16T01:02:10;100281.88;;;12.41;89.32
19795;BME280;10057;59.402;17.866;2022-10-16T01:04:48;100278.44;;;12.39;89.38
19795;BME280;10057;59.402;17.866;2022-10-16T01:13:06;100279.72;;;12.31;89.20
19795;BME280;10057;59.402;17.866;2022-10-16T01:18:32;100271.09;;;12.26;89.04
19795;BME280;10057;59.402;17.866;2022-10-16T01:21:08;100273.91;;;12.23;89.26
19795;BME280;10057;59.402;17.866;2022-10-16T01:24:06;100282.84;;;12.22;89.21
19795;BME280;10057;59.402;17.866;2022-10-16T01:30:13;100299.78;;;12.20;89.40
19795;BME280;10057;59.402;17.866;2022-10-16T01:35:10;100300.59;;;12.22;89.56
19795;BME280;10057;59.402;17.866;2022-10-16T01:37:41;100298.69;;;12.24;89.23
19795;BME280;10057;59.402;17.866;2022-10-16T01:40:12;100290.66;;;12.25;89.23
19795;BME280;10057;59.402;17.866;2022-10-16T01:42:43;100295.03;;;12.26;89.41
19795;BME280;10057;59.402;17.866;2022-10-16T01:45:14;100302.84;;;12.29;89.68
19795;BME280;10057;59.402;17.866;2022-10-16T01:47:45;100296.53;;;12.32;89.50
19795;BME280;10057;59.402;17.866;2022-10-16T01:50:15;100299.94;;;12.34;89.57
19795;BME280;10057;59.402;17.866;2022-10-16T01:52:45;100302.44;;;12.37;89.58
19795;BME280;10057;59.402;17.866;2022-10-16T01:55:16;100290.03;;;12.38;89.47
19795;BME280;10057;59.402;17.866;2022-10-16T01:57:46;100294.31;;;12.40;89.51
19795;BME280;10057;59.402;17.866;2022-10-16T02:00:17;100289.78;;;12.42;89.38
19795;BME280;10057;59.402;17.866;2022-10-16T02:02:49;100287.03;;;12.44;89.30
19795;BME280;10057;59.402;17.866;2022-10-16T02:05:30;100279.06;;;12.44;89.18
19795;BME280;10057;59.402;17.866;2022-10-16T02:07:57;100278.19;;;12.43;89.25
19795;BME280;10057;59.402;17.866;2022-10-16T02:10:28;100287.03;;;12.44;89.23
19795;BME280;10057;59.402;17.866;2022-10-16T02:13:22;100271.94;;;12.44;89.46
19795;BME280;10057;59.402;17.866;2022-10-16T02:15:50;100275.53;;;12.43;89.43
19795;BME280;10057;59.402;17.866;2022-10-16T02:18:17;100279.91;;;12.44;89.40
19795;BME280;10057;59.402;17.866;2022-10-16T02:20:51;100271.88;;;12.46;89.44
19795;BME280;10057;59.402;17.866;2022-10-16T02:23:48;100272.81;;;12.45;89.13
19795;BME280;10057;59.402;17.866;2022-10-16T02:26:22;100281.56;;;12.47;89.29
19795;BME280;10057;59.402;17.866;2022-10-16T02:28:55;100275.31;;;12.48;89.32
19795;BME280;10057;59.402;17.866;2022-10-16T02:31:27;100272.66;;;12.48;89.02
19795;BME280;10057;59.402;17.866;2022-10-16T02:33:57;100279.69;;;12.49;89.32
19795;BME280;10057;59.402;17.866;2022-10-16T02:36:26;100295.56;;;12.50;89.19
19795;BME280;10057;59.402;17.866;2022-10-16T02:38:54;100284.91;;;12.50;89.24
19795;BME280;10057;59.402;17.866;2022-10-16T02:41:21;100270.75;;;12.50;89.21
19795;BME280;10057;59.402;17.866;2022-10-16T02:43:48;100265.59;;;12.47;89.05
19795;BME280;10057;59.402;17.866;2022-10-16T02:46:16;100262.03;;;12.48;89.17
19795;BME280;10057;59.402;17.866;2022-10-16T02:48:43;100264.75;;;12.46;89.08
19795;BME280;10057;59.402;17.866;2022-10-16T02:51:10;100258.56;;;12.46;89.15
19795;BME280;10057;59.402;17.866;2022-10-16T02:53:36;100256.75;;;12.46;88.78
19795;BME280;10057;59.402;17.866;2022-10-16T02:56:03;100249.63;;;12.47;89.15
19795;BME280;10057;59.402;17.866;2022-10-16T02:58:30;100247.91;;;12.46;89.00
19795;BME280;10057;59.402;17.866;2022-10-16T03:00:57;100240.91;;;12.45;88.94
19795;BME280;10057;59.402;17.866;2022-10-16T03:03:23;100246.22;;;12.45;89.01
19795;BME280;10057;59.402;17.866;2022-10-16T03:05:50;100241.75;;;12.45;88.71
19795;BME280;10057;59.402;17.866;2022-10-16T03:08:17;100246.22;;;12.45;88.95
19795;BME280;10057;59.402;17.866;2022-10-16T03:10:45;100248.78;;;12.46;88.61
19795;BME280;10057;59.402;17.866;2022-10-16T03:13:11;100246.06;;;12.48;88.73
19795;BME280;10057;59.402;17.866;2022-10-16T03:15:38;100240.72;;;12.48;88.80
19795;BME280;10057;59.402;17.866;2022-10-16T03:18:05;100246.06;;;12.48;88.76
19795;BME280;10057;59.402;17.866;2022-10-16T03:20:31;100240.72;;;12.48;89.01
19795;BME280;10057;59.402;17.866;2022-10-16T03:22:58;100237.19;;;12.47;88.80
19795;BME280;10057;59.402;17.866;2022-10-16T03:25:25;100225.63;;;12.48;88.63
19795;BME280;10057;59.402;17.866;2022-10-16T03:27:51;100233.50;;;12.50;88.78
19795;BME280;10057;59.402;17.866;2022-10-16T03:30:18;100239.78;;;12.49;88.74
19795;BME280;10057;59.402;17.866;2022-10-16T03:32:45;100237.97;;;12.49;88.91
19795;BME280;10057;59.402;17.866;2022-10-16T03:35:12;100235.31;;;12.49;88.60
19795;BME280;10057;59.402;17.866;2022-10-16T03:37:39;100231.81;;;12.49;88.95
19795;BME280;10057;59.402;17.866;2022-10-16T03:40:06;100224.78;;;12.48;88.57
19795;BME280;10057;59.402;17.866;2022-10-16T03:42:32;100227.34;;;12.49;88.73
19795;BME280;10057;59.402;17.866;2022-10-16T03:44:59;100221.16;;;12.49;88.83
19795;BME280;10057;59.402;17.866;2022-10-16T03:47:26;100221.06;;;12.50;88.81
19795;BME280;10057;59.402;17.866;2022-10-16T03:49:53;100225.63;;;12.48;88.60
19795;BME280;10057;59.402;17.866;2022-10-16T03:52:19;100224.78;;;12.48;88.36
19795;BME280;10057;59.402;17.866;2022-10-16T03:54:46;100224.78;;;12.48;88.34
19795;BME280;10057;59.402;17.866;2022-10-16T03:57:13;100222.19;;;12.46;88.58
19795;BME280;10057;59.402;17.866;2022-10-16T03:59:39;100225.84;;;12.44;88.84
19795;BME280;10057;59.402;17.866;2022-10-16T04:02:06;100228.50;;;12.44;88.44
19795;BME280;10057;59.402;17.866;2022-10-16T04:04:32;100217.00;;;12.43;88.44
19795;BME280;10057;59.402;17.866;2022-10-16T04:06:59;100220.63;;;12.42;88.67
19795;BME280;10057;59.402;17.866;2022-10-16T04:09:26;100219.78;;;12.42;88.66
19795;BME280;10057;59.402;17.866;2022-10-16T04:11:53;100223.34;;;12.41;88.53
19795;BME280;10057;59.402;17.866;2022-10-16T04:14:19;100213.66;;;12.40;88.42
19795;BME280;10057;59.402;17.866;2022-10-16T04:16:46;100215.56;;;12.38;88.59
19795;BME280;10057;59.402;17.866;2022-10-16T04:19:12;100220.09;;;12.36;88.47
19795;BME280;10057;59.402;17.866;2022-10-16T04:21:39;100216.47;;;12.37;88.50
19795;BME280;10057;59.402;17.866;2022-10-16T04:24:06;100209.44;;;12.36;88.43
19795;BME280;10057;59.402;17.866;2022-10-16T04:26:33;100216.63;;;12.33;88.29
19795;BME280;10057;59.402;17.866;2022-10-16T04:28:59;100227.44;;;12.30;88.36
19795;BME280;10057;59.402;17.866;2022-10-16T04:31:26;100234.56;;;12.30;88.48
19795;BME280;10057;59.402;17.866;2022-10-16T04:33:53;100239.13;;;12.28;88.50
19795;BME280;10057;59.402;17.866;2022-10-16T04:36:19;100240.13;;;12.25;88.59
19795;BME280;10057;59.402;17.866;2022-10-16T04:38:50;100243.75;;;12.24;88.40
19795;BME280;10057;59.402;17.866;2022-10-16T04:41:17;100229.66;;;12.22;88.57
19795;BME280;10057;59.402;17.866;2022-10-16T04:43:47;100230.44;;;12.24;88.41
19795;BME280;10057;59.402;17.866;2022-10-16T04:46:13;100227.00;;;12.22;88.39
19795;BME280;10057;59.402;17.866;2022-10-16T04:48:40;100231.34;;;12.23;88.54
19795;BME280;10057;59.402;17.866;2022-10-16T04:51:07;100222.63;;;12.21;88.33
19795;BME280;10057;59.402;17.866;2022-10-16T04:53:33;100232.41;;;12.21;88.27
19795;BME280;10057;59.402;17.866;2022-10-16T04:56:00;100231.50;;;12.20;88.39
19795;BME280;10057;59.402;17.866;2022-10-16T04:58:27;100227.25;;;12.18;88.28
19795;BME280;10057;59.402;17.866;2022-10-16T05:00:53;100241.44;;;12.17;88.43
19795;BME280;10057;59.402;17.866;2022-10-16T05:03:20;100222.84;;;12.17;88.31
19795;BME280;10057;59.402;17.866;2022-10-16T05:05:47;100217.53;;;12.17;88.61
19795;BME280;10057;59.402;17.866;2022-10-16T05:08:15;100234.41;;;12.16;88.27
19795;BME280;10057;59.402;17.866;2022-10-16T05:10:43;100221.22;;;12.14;88.56
19795;BME280;10057;59.402;17.866;2022-10-16T05:13:11;100233.72;;;12.12;88.42
19795;BME280;10057;59.402;17.866;2022-10-16T05:15:38;100239.03;;;12.12;88.26
19795;BME280;10057;59.402;17.866;2022-10-16T05:18:04;100238.19;;;12.12;88.21
19795;BME280;10057;59.402;17.866;2022-10-16T05:20:31;100241.78;;;12.11;88.29
19795;BME280;10057;59.402;17.866;2022-10-16T05:22:58;100230.28;;;12.10;88.40
19795;BME280;10057;59.402;17.866;2022-10-16T05:25:24;100217.91;;;12.09;88.31
19795;BME280;10057;59.402;17.866;2022-10-16T05:27:51;100218.88;;;12.08;88.51
19795;BME280;10057;59.402;17.866;2022-10-16T05:30:18;100221.53;;;12.08;88.19
19795;BME280;10057;59.402;17.866;2022-10-16T05:32:49;100219.81;;;12.07;88.32
19795;BME280;10057;59.402;17.866;2022-10-16T05:35:17;100214.56;;;12.05;88.57
19795;BME280;10057;59.402;17.866;2022-10-16T05:37:44;100219.97;;;12.04;88.46
19795;BME280;10057;59.402;17.866;2022-10-16T05:40:11;100225.34;;;12.02;88.58
19795;BME280;10057;59.402;17.866;2022-10-16T05:42:39;100233.31;;;12.02;88.39
19795;BME280;10057;59.402;17.866;2022-10-16T05:45:09;100244.91;;;12.01;88.40
19795;BME280;10057;59.402;17.866;2022-10-16T05:47:36;100243.97;;;12.02;88.58
19795;BME280;10057;59.402;17.866;2022-10-16T05:50:03;100246.56;;;12.04;88.69
19795;BME280;10057;59.402;17.866;2022-10-16T05:52:30;100252.72;;;12.04;88.58
19795;BME280;10057;59.402;17.866;2022-10-16T05:54:57;100250.06;;;12.04;88.99
19795;BME280;10057;59.402;17.866;2022-10-16T05:57:23;100254.38;;;12.07;88.95
19795;BME280;10057;59.402;17.866;2022-10-16T05:59:51;100255.25;;;12.07;88.74
19795;BME280;10057;59.402;17.866;2022-10-16T06:02:17;100248.13;;;12.08;88.96
19795;BME280;10057;59.402;17.866;2022-10-16T06:04:44;100253.28;;;12.11;89.04
19795;BME280;10057;59.402;17.866;2022-10-16T06:07:11;100254.13;;;12.12;89.07
19795;BME280;10057;59.402;17.866;2022-10-16T06:09:37;100250.53;;;12.13;88.73
19795;BME280;10057;59.402;17.866;2022-10-16T06:12:07;100259.31;;;12.15;89.01
19795;BME280;10057;59.402;17.866;2022-10-16T06:14:34;100273.34;;;12.17;88.84
19795;BME280;10057;59.402;17.866;2022-10-16T06:17:01;100274.16;;;12.19;88.71
19795;BME280;10057;59.402;17.866;2022-10-16T06:19:35;100272.34;;;12.19;88.98
19795;BME280;10057;59.402;17.866;2022-10-16T06:22:08;100264.31;;;12.21;89.15
19795;BME280;10057;59.402;17.866;2022-10-16T06:24:34;100267.72;;;12.23;89.18
19795;BME280;10057;59.402;17.866;2022-10-16T06:27:03;100281.81;;;12.25;89.10
19795;BME280;10057;59.402;17.866;2022-10-16T06:29:30;100280.97;;;12.24;89.20
19795;BME280;10057;59.402;17.866;2022-10-16T06:31:56;100281.88;;;12.23;89.23
19795;BME280;10057;59.402;17.866;2022-10-16T06:34:23;100291.50;;;12.26;89.24
19795;BME280;10057;59.402;17.866;2022-10-16T06:36:50;100287.84;;;12.28;89.10
19795;BME280;10057;59.402;17.866;2022-10-16T06:39:16;100285.94;;;12.30;89.10
19795;BME280;10057;59.402;17.866;2022-10-16T06:41:43;100284.94;;;12.33;89.41
19795;BME280;10057;59.402;17.866;2022-10-16T06:44:10;100293.72;;;12.35;89.20
19795;BME280;10057;59.402;17.866;2022-10-16T06:46:39;100293.63;;;12.37;89.50
19795;BME280;10057;59.402;17.866;2022-10-16T06:49:06;100296.97;;;12.40;89.46
19795;BME280;10057;59.402;17.866;2022-10-16T06:51:35;100291.59;;;12.42;89.59
19795;BME280;10057;59.402;17.866;2022-10-16T06:54:08;100294.09;;;12.45;89.09
19795;BME280;10057;59.402;17.866;2022-10-16T06:56:35;100295.72;;;12.47;89.35
19795;BME280;10057;59.402;17.866;2022-10-16T06:59:02;100294.78;;;12.48;89.43
19795;BME280;10057;59.402;17.866;2022-10-16T07:01:29;100299.06;;;12.51;89.17
19795;BME280;10057;59.402;17.866;2022-10-16T07:03:56;100301.69;;;12.52;89.21
19795;BME280;10057;59.402;17.866;2022-10-16T07:06:25;100303.38;;;12.53;89.61
19795;BME280;10057;59.402;17.866;2022-10-16T07:08:55;100300.66;;;12.55;89.38
19795;BME280;10057;59.402;17.866;2022-10-16T07:11:25;100304.09;;;12.57;89.53
19795;BME280;10057;59.402;17.866;2022-10-16T07:13:52;100298.75;;;12.57;89.21
19795;BME280;10057;59.402;17.866;2022-10-16T07:16:24;100302.22;;;12.59;89.38
19795;BME280;10057;59.402;17.866;2022-10-16T07:18:54;100308.28;;;12.61;89.48
19795;BME280;10057;59.402;17.866;2022-10-16T07:21:29;100293.13;;;12.63;89.09
19795;BME280;10057;59.402;17.866;2022-10-16T07:23:58;100304.56;;;12.65;89.49
19795;BME280;10057;59.402;17.866;2022-10-16T07:26:27;100310.66;;;12.67;89.48
19795;BME280;10057;59.402;17.866;2022-10-16T07:28:54;100307.03;;;12.68;89.32
19795;BME280;10057;59.402;17.866;2022-10-16T07:31:24;100313.25;;;12.69;89.31
19795;BME280;10057;59.402;17.866;2022-10-16T07:33:58;100301.56;;;12.71;89.20
19795;BME280;10057;59.402;17.866;2022-10-16T07:36:25;100305.97;;;12.72;89.30
19795;BME280;10057;59.402;17.866;2022-10-16T07:38:54;100311.13;;;12.75;89.30
19795;BME280;10057;59.402;17.866;2022-10-16T07:41:26;100306.56;;;12.77;89.02
19795;BME280;10057;59.402;17.866;2022-10-16T07:43:53;100302.94;;;12.78;89.00
19795;BME280;10057;59.402;17.866;2022-10-16T07:46:22;100306.41;;;12.80;88.74
19795;BME280;10057;59.402;17.866;2022-10-16T07:48:49;100305.53;;;12.80;88.91
19795;BME280;10057;59.402;17.866;2022-10-16T07:51:18;100308.09;;;12.81;89.17
19795;BME280;10057;59.402;17.866;2022-10-16T07:53:46;100304.53;;;12.83;88.82
19795;BME280;10057;59.402;17.866;2022-10-16T07:56:13;100309.84;;;12.83;88.92
19795;BME280;10057;59.402;17.866;2022-10-16T07:58:40;100301.75;;;12.84;88.67
19795;BME280;10057;59.402;17.866;2022-10-16T08:01:15;100304.53;;;12.83;88.31
19795;BME280;10057;59.402;17.866;2022-10-16T08:03:49;100318.59;;;12.85;88.51
19795;BME280;10057;59.402;17.866;2022-10-16T08:06:29;100311.56;;;12.84;88.53
19795;BME280;10057;59.402;17.866;2022-10-16T08:09:03;100317.69;;;12.86;88.58
19795;BME280;10057;59.402;17.866;2022-10-16T08:11:30;100321.94;;;12.88;88.58
19795;BME280;10057;59.402;17.866;2022-10-16T08:14:02;100320.16;;;12.89;88.31
19795;BME280;10057;59.402;17.866;2022-10-16T08:16:31;100321.03;;;12.89;88.39
19795;BME280;10057;59.402;17.866;2022-10-16T08:18:58;100331.59;;;12.91;88.20
19795;BME280;10057;59.402;17.866;2022-10-16T08:21:27;100326.25;;;12.91;87.83
19795;BME280;10057;59.402;17.866;2022-10-16T08:23:54;100325.31;;;12.92;87.90
19795;BME280;10057;59.402;17.866;2022-10-16T08:26:24;100328.75;;;12.94;87.67
19795;BME280;10057;59.402;17.866;2022-10-16T08:28:51;100332.38;;;12.93;87.65
19795;BME280;10057;59.402;17.866;2022-10-16T08:31:18;100326.00;;;12.95;87.70
19795;BME280;10057;59.402;17.866;2022-10-16T08:33:45;100328.59;;;12.97;87.64
19795;BME280;10057;59.402;17.866;2022-10-16T08:36:14;100324.97;;;12.98;87.50
19795;BME280;10057;59.402;17.866;2022-10-16T08:38:41;100330.31;;;12.98;87.39
19795;BME280;10057;59.402;17.866;2022-10-16T08:41:19;100325.94;;;12.97;87.74
19795;BME280;10057;59.402;17.866;2022-10-16T08:44:09;100331.25;;;12.97;87.39
19795;BME280;10057;59.402;17.866;2022-10-16T08:49:19;100338.31;;;12.98;87.05
19795;BME280;10057;59.402;17.866;2022-10-16T08:51:46;100341.81;;;12.98;87.43
19795;BME280;10057;59.402;17.866;2022-10-16T08:54:21;100346.13;;;13.01;87.46
19795;BME280;10057;59.402;17.866;2022-10-16T08:56:49;100341.81;;;12.98;86.94
19795;BME280;10057;59.402;17.866;2022-10-16T08:59:16;100339.25;;;12.97;86.90
19795;BME280;10057;59.402;17.866;2022-10-16T09:01:46;100332.03;;;12.99;87.20
19795;BME280;10057;59.402;17.866;2022-10-16T09:04:50;100340.81;;;13.01;87.06
19795;BME280;10057;59.402;17.866;2022-10-16T09:10:28;100344.84;;;13.08;87.10
19795;BME280;10057;59.402;17.866;2022-10-16T09:13:14;100345.63;;;13.10;86.78
19795;BME280;10057;59.402;17.866;2022-10-16T09:15:53;100345.63;;;13.10;86.57
19795;BME280;10057;59.402;17.866;2022-10-16T09:18:29;100339.38;;;13.11;86.52
19795;BME280;10057;59.402;17.866;2022-10-16T09:23:35;100340.69;;;13.20;86.45
19795;BME280;10057;59.402;17.866;2022-10-16T09:26:05;100331.63;;;13.22;86.64
19795;BME280;10057;59.402;17.866;2022-10-16T09:28:36;100335.91;;;13.26;86.37
19795;BME280;10057;59.402;17.866;2022-10-16T09:31:02;100335.97;;;13.25;86.11
19795;BME280;10057;59.402;17.866;2022-10-16T09:33:33;100334.09;;;13.27;86.09
19795;BME280;10057;59.402;17.866;2022-10-16T09:36:03;100336.69;;;13.28;86.12
19795;BME280;10057;59.402;17.866;2022-10-16T09:38:34;100337.28;;;13.34;85.97
19795;BME280;10057;59.402;17.866;2022-10-16T09:41:14;100338.06;;;13.36;85.85
19795;BME280;10057;59.402;17.866;2022-10-16T09:46:25;100347.53;;;13.41;84.96
19795;BME280;10057;59.402;17.866;2022-10-16T09:48:58;100341.34;;;13.41;84.88
19795;BME280;10057;59.402;17.866;2022-10-16T09:51:33;100338.50;;;13.44;85.00
19795;BME280;10057;59.402;17.866;2022-10-16T09:56:38;100336.28;;;13.52;84.92
19795;BME280;10057;59.402;17.866;2022-10-16T09:59:14;100339.72;;;13.54;84.31
19795;BME280;10057;59.402;17.866;2022-10-16T10:01:46;100336.94;;;13.56;84.08
19795;BME280;10057;59.402;17.866;2022-10-16T10:04:14;100328.78;;;13.59;84.03
19795;BME280;10057;59.402;17.866;2022-10-16T10:06:59;100325.84;;;13.63;84.09
19795;BME280;10057;59.402;17.866;2022-10-16T10:09:28;100332.72;;;13.67;83.60
19795;BME280;10057;59.402;17.866;2022-10-16T10:11:58;100333.34;;;13.72;83.55
19795;BME280;10057;59.402;17.866;2022-10-16T10:14:38;100331.25;;;13.78;83.02
19795;BME280;10057;59.402;17.866;2022-10-16T10:19:47;100340.72;;;13.83;82.32
19795;BME280;10057;59.402;17.866;2022-10-16T10:30:33;100346.97;;;13.98;81.88
19795;BME280;10057;59.402;17.866;2022-10-16T10:33:13;100336.25;;;13.99;81.57
19795;BME280;10057;59.402;17.866;2022-10-16T10:35:56;100338.81;;;14.01;81.58
19795;BME280;10057;59.402;17.866;2022-10-16T10:47:05;100346.47;;;14.07;80.82
19795;BME280;10057;59.402;17.866;2022-10-16T10:55:37;100331.25;;;14.09;80.65
19795;BME280;10057;59.402;17.866;2022-10-16T10:58:29;100322.88;;;14.15;80.34
19795;BME280;10057;59.402;17.866;2022-10-16T11:01:13;100321.66;;;14.21;80.35
19795;BME280;10057;59.402;17.866;2022-10-16T11:07:07;100313.97;;;14.31;79.93
19795;BME280;10057;59.402;17.866;2022-10-16T11:09:49;100321.69;;;14.35;79.64
19795;BME280;10057;59.402;17.866;2022-10-16T11:12:21;100313.59;;;14.37;79.52
19795;BME280;10057;59.402;17.866;2022-10-16T11:17:40;100316.47;;;14.48;79.47
19795;BME280;10057;59.402;17.866;2022-10-16T11:20:30;100314.22;;;14.56;79.24
19795;BME280;10057;59.402;17.866;2022-10-16T11:23:05;100304.16;;;14.61;78.96
19795;BME280;10057;59.402;17.866;2022-10-16T11:25:34;100303.00;;;14.65;78.80
19795;BME280;10057;59.402;17.866;2022-10-16T11:28:16;100305.47;;;14.68;78.22
19795;BME280;10057;59.402;17.866;2022-10-16T11:34:40;100302.63;;;14.72;77.88
19795;BME280;10057;59.402;17.866;2022-10-16T11:37:03;100295.59;;;14.71;77.66
19795;BME280;10057;59.402;17.866;2022-10-16T11:39:34;100297.28;;;14.72;77.54
19795;BME280;10057;59.402;17.866;2022-10-16T11:48:00;100282.06;;;14.74;77.15
19795;BME280;10057;59.402;17.866;2022-10-16T11:55:47;100275.94;;;14.72;76.71
19795;BME280;10057;59.402;17.866;2022-10-16T11:58:30;100266.28;;;14.69;76.46
19795;BME280;10057;59.402;17.866;2022-10-16T12:03:54;100258.47;;;14.66;76.35
19795;BME280;10057;59.402;17.866;2022-10-16T12:07:27;100258.41;;;14.67;76.44
19795;BME280;10057;59.402;17.866;2022-10-16T12:09:27;100243.13;;;14.69;76.21
19795;BME280;10057;59.402;17.866;2022-10-16T12:11:54;100241.13;;;14.73;76.30
19795;BME280;10057;59.402;17.866;2022-10-16T12:14:35;100242.75;;;14.76;76.20
19795;BME280;10057;59.402;17.866;2022-10-16T12:23:03;100231.31;;;14.74;75.94
19795;BME280;10057;59.402;17.866;2022-10-16T12:25:33;100224.44;;;14.69;75.90
19795;BME280;10057;59.402;17.866;2022-10-16T12:30:41;100220.44;;;14.62;75.55
19795;BME280;10057;59.402;17.866;2022-10-16T12:35:47;100218.91;;;14.58;75.65
19795;BME280;10057;59.402;17.866;2022-10-16T12:41:05;100215.88;;;14.50;75.35
19795;BME280;10057;59.402;17.866;2022-10-16T12:48:42;100198.56;;;14.41;75.22
19795;BME280;10057;59.402;17.866;2022-10-16T13:05:35;100174.44;;;14.29;75.54
19795;BME280;10057;59.402;17.866;2022-10-16T13:25:58;100156.91;;;14.25;76.48
19795;BME280;10057;59.402;17.866;2022-10-16T13:28:30;100148.91;;;14.25;76.32
19795;BME280;10057;59.402;17.866;2022-10-16T13:30:59;100150.84;;;14.22;76.19
19795;BME280;10057;59.402;17.866;2022-10-16T13:33:39;100135.88;;;14.20;76.39
19795;BME280;10057;59.402;17.866;2022-10-16T13:36:18;100134.91;;;14.21;76.45
19795;BME280;10057;59.402;17.866;2022-10-16T13:38:46;100133.94;;;14.22;76.46
19795;BME280;10057;59.402;17.866;2022-10-16T13:41:18;100118.72;;;14.24;76.49
19795;BME280;10057;59.402;17.866;2022-10-16T13:43:49;100112.41;;;14.25;76.32
19795;BME280;10057;59.402;17.866;2022-10-16T13:46:19;100096.41;;;14.25;76.36
19795;BME280;10057;59.402;17.866;2022-10-16T13:49:05;100110.72;;;14.24;76.11
19795;BME280;10057;59.402;17.866;2022-10-16T13:51:33;100148.34;;;14.19;76.42
19795;BME280;10057;59.402;17.866;2022-10-16T13:54:02;100171.56;;;14.03;76.56
19795;BME280;10057;59.402;17.866;2022-10-16T13:56:31;100178.06;;;13.69;76.98
19795;BME280;10057;59.402;17.866;2022-10-16T13:59:00;100159.31;;;13.40;77.57
19795;BME280;10057;59.402;17.866;2022-10-16T14:01:50;100159.66;;;13.18;78.32
19795;BME280;10057;59.402;17.866;2022-10-16T14:04:18;100173.41;;;12.95;79.30
19795;BME280;10057;59.402;17.866;2022-10-16T14:06:46;100162.75;;;12.79;80.06
19795;BME280;10057;59.402;17.866;2022-10-16T14:09:26;100163.31;;;12.68;80.31
19795;BME280;10057;59.402;17.866;2022-10-16T14:11:56;100158.53;;;12.59;80.99
19795;BME280;10057;59.402;17.866;2022-10-16T14:14:25;100158.69;;;12.56;81.27
19795;BME280;10057;59.402;17.866;2022-10-16T14:16:53;100168.47;;;12.55;81.55
19795;BME280;10057;59.402;17.866;2022-10-16T14:19:25;100151.66;;;12.55;82.00
19795;BME280;10057;59.402;17.866;2022-10-16T14:21:53;100146.41;;;12.53;81.82
19795;BME280;10057;59.402;17.866;2022-10-16T14:24:31;100140.22;;;12.53;82.12
19795;BME280;10057;59.402;17.866;2022-10-16T14:27:00;100142.03;;;12.52;82.35
19795;BME280;10057;59.402;17.866;2022-10-16T14:29:29;100137.66;;;12.51;82.44
19795;BME280;10057;59.402;17.866;2022-10-16T14:32:03;100138.00;;;12.45;82.31
19795;BME280;10057;59.402;17.866;2022-10-16T14:34:37;100145.63;;;12.36;82.53
19795;BME280;10057;59.402;17.866;2022-10-16T14:37:26;100141.41;;;12.31;82.85
19795;BME280;10057;59.402;17.866;2022-10-16T14:39:54;100146.72;;;12.31;83.42
19795;BME280;10057;59.402;17.866;2022-10-16T14:42:23;100142.16;;;12.33;83.76
19795;BME280;10057;59.402;17.866;2022-10-16T14:44:52;100143.22;;;12.31;83.67
19795;BME280;10057;59.402;17.866;2022-10-16T14:47:22;100135.31;;;12.29;83.85
19795;BME280;10057;59.402;17.866;2022-10-16T14:49:54;100127.47;;;12.26;84.36
19795;BME280;10057;59.402;17.866;2022-10-16T14:52:25;100135.41;;;12.28;84.39
19795;BME280;10057;59.402;17.866;2022-10-16T14:54:55;100114.03;;;12.29;84.82
19795;BME280;10057;59.402;17.866;2022-10-16T14:57:24;100124.66;;;12.29;84.91
19795;BME280;10057;59.402;17.866;2022-10-16T14:59:54;100130.09;;;12.28;84.86
19795;BME280;10057;59.402;17.866;2022-10-16T15:02:27;100118.81;;;12.23;85.09
19795;BME280;10057;59.402;17.866;2022-10-16T15:04:55;100115.31;;;12.22;85.52
19795;BME280;10057;59.402;17.866;2022-10-16T15:07:24;100125.09;;;12.22;85.49